createdAt,value
2018-07-22T00:00:19.293Z,0.00
2018-07-22T00:01:19.281Z,0.00
2018-07-22T00:02:19.271Z,0.00
2018-07-22T00:03:19.254Z,0.00
2018-07-22T00:04:19.246Z,0.00
2018-07-22T00:05:19.231Z,0.00
2018-07-22T00:06:19.217Z,0.00
2018-07-22T00:07:19.205Z,0.00
2018-07-22T00:08:19.192Z,0.00
2018-07-22T00:09:19.176Z,0.00
2018-07-22T00:10:19.166Z,0.00
2018-07-22T00:11:19.149Z,0.00
2018-07-22T00:12:19.139Z,0.00
2018-07-22T00:13:19.129Z,0.00
2018-07-22T00:14:19.160Z,0.00
2018-07-22T00:15:19.098Z,0.00
2018-07-22T00:16:19.087Z,0.00
2018-07-22T00:17:19.123Z,0.00
2018-07-22T00:18:19.063Z,0.00
2018-07-22T00:19:19.043Z,0.00
2018-07-22T00:20:19.032Z,0.00
2018-07-22T00:21:19.029Z,0.00
2018-07-22T00:22:19.010Z,0.00
2018-07-22T00:23:18.991Z,0.00
2018-07-22T00:24:18.977Z,0.00
2018-07-22T00:25:18.966Z,0.00
2018-07-22T00:26:18.952Z,0.00
2018-07-22T00:27:18.937Z,0.00
2018-07-22T00:28:18.924Z,0.00
2018-07-22T00:29:18.984Z,0.00
2018-07-22T00:30:18.896Z,0.00
2018-07-22T00:31:18.885Z,0.00
2018-07-22T00:32:18.879Z,0.00
2018-07-22T00:33:18.857Z,0.00
2018-07-22T00:34:18.844Z,0.00
2018-07-22T00:35:18.832Z,0.00
2018-07-22T00:36:18.817Z,0.00
2018-07-22T00:37:18.811Z,0.00
2018-07-22T00:38:18.910Z,0.00
2018-07-22T00:39:18.778Z,0.00
2018-07-22T00:40:18.765Z,0.00
2018-07-22T00:41:18.755Z,0.00
2018-07-22T00:42:18.748Z,0.00
2018-07-22T00:43:18.723Z,0.00
2018-07-22T00:44:18.713Z,0.00
2018-07-22T00:45:18.702Z,0.00
2018-07-22T00:46:18.693Z,0.00
2018-07-22T00:47:18.676Z,0.00
2018-07-22T00:48:18.664Z,0.00
2018-07-22T00:49:18.650Z,0.00
2018-07-22T00:50:18.645Z,0.00
2018-07-22T00:51:18.619Z,0.00
2018-07-22T00:52:18.617Z,0.00
2018-07-22T00:53:18.595Z,0.00
2018-07-22T00:54:18.581Z,0.00
2018-07-22T00:55:18.566Z,0.00
2018-07-22T00:56:18.558Z,0.00
2018-07-22T00:57:18.640Z,0.00
2018-07-22T00:58:18.526Z,0.00
2018-07-22T00:59:18.523Z,0.00
2018-07-22T01:00:18.614Z,0.00
2018-07-22T01:01:18.484Z,0.00
2018-07-22T01:02:18.479Z,0.00
2018-07-22T01:03:18.461Z,0.00
2018-07-22T01:04:18.448Z,0.00
2018-07-22T01:05:18.437Z,0.00
2018-07-22T01:06:18.431Z,0.00
2018-07-22T01:07:18.406Z,0.00
2018-07-22T01:08:18.394Z,0.00
2018-07-22T01:09:18.380Z,0.00
2018-07-22T01:10:18.365Z,0.00
2018-07-22T01:11:18.367Z,0.00
2018-07-22T01:12:18.339Z,0.00
2018-07-22T01:13:18.324Z,0.00
2018-07-22T01:14:18.310Z,0.00
2018-07-22T01:15:18.304Z,0.00
2018-07-22T01:16:18.284Z,0.00
2018-07-22T01:17:18.273Z,0.00
2018-07-22T01:18:18.273Z,0.00
2018-07-22T01:19:18.245Z,0.00
2018-07-22T01:20:18.236Z,0.00
2018-07-22T01:21:18.321Z,0.00
2018-07-22T01:22:18.206Z,0.00
2018-07-22T01:23:18.195Z,0.00
2018-07-22T01:24:18.175Z,0.00
2018-07-22T01:25:18.165Z,0.00
2018-07-22T01:26:18.151Z,0.00
2018-07-22T01:27:18.138Z,0.00
2018-07-22T01:28:18.123Z,0.00
2018-07-22T01:29:18.110Z,0.00
2018-07-22T01:30:18.097Z,0.00
2018-07-22T01:31:18.082Z,0.00
2018-07-22T01:32:18.070Z,0.00
2018-07-22T01:33:18.060Z,0.00
2018-07-22T01:34:18.047Z,0.00
2018-07-22T01:35:18.031Z,0.00
2018-07-22T01:36:18.017Z,0.00
2018-07-22T01:37:18.011Z,0.00
2018-07-22T01:38:17.990Z,0.00
2018-07-22T01:39:17.976Z,0.00
2018-07-22T01:40:17.963Z,0.00
2018-07-22T01:41:17.948Z,0.00
2018-07-22T01:42:17.939Z,0.00
2018-07-22T01:43:17.930Z,0.00
2018-07-22T01:44:17.909Z,0.00
2018-07-22T01:45:17.893Z,0.00
2018-07-22T01:46:17.884Z,0.00
2018-07-22T01:47:17.871Z,0.00
2018-07-22T01:48:17.905Z,0.00
2018-07-22T01:49:17.848Z,0.00
2018-07-22T01:50:17.832Z,0.00
2018-07-22T01:51:17.811Z,0.00
2018-07-22T01:52:17.799Z,0.00
2018-07-22T01:53:17.785Z,0.00
2018-07-22T01:54:17.772Z,0.00
2018-07-22T01:55:17.758Z,0.00
2018-07-22T01:56:17.827Z,0.00
2018-07-22T01:57:17.737Z,0.00
2018-07-22T01:58:17.716Z,0.00
2018-07-22T01:59:17.705Z,0.00
2018-07-22T02:00:17.694Z,0.00
2018-07-22T02:01:17.683Z,0.00
2018-07-22T02:02:17.661Z,0.00
2018-07-22T02:03:17.652Z,0.00
2018-07-22T02:04:17.634Z,0.00
2018-07-22T02:05:17.624Z,0.00
2018-07-22T02:06:17.608Z,0.00
2018-07-22T02:07:17.598Z,0.00
2018-07-22T02:08:17.583Z,0.00
2018-07-22T02:09:17.570Z,0.00
2018-07-22T02:10:17.552Z,0.00
2018-07-22T02:11:17.546Z,0.00
2018-07-22T02:12:17.526Z,0.00
2018-07-22T02:13:17.513Z,0.00
2018-07-22T02:14:17.505Z,0.00
2018-07-22T02:15:17.484Z,0.00
2018-07-22T02:16:17.472Z,0.00
2018-07-22T02:17:17.462Z,0.00
2018-07-22T02:18:17.444Z,0.00
2018-07-22T02:19:17.432Z,0.00
2018-07-22T02:20:17.472Z,0.00
2018-07-22T02:21:17.405Z,0.00
2018-07-22T02:22:17.391Z,0.00
2018-07-22T02:23:17.380Z,0.00
2018-07-22T02:24:17.363Z,0.00
2018-07-22T02:25:17.351Z,0.00
2018-07-22T02:26:17.333Z,0.00
2018-07-22T02:27:17.337Z,0.00
2018-07-22T02:28:17.310Z,0.00
2018-07-22T02:29:17.295Z,0.00
2018-07-22T02:30:17.286Z,0.00
2018-07-22T02:31:17.268Z,0.00
2018-07-22T02:32:17.254Z,0.00
2018-07-22T02:33:17.239Z,0.00
2018-07-22T02:34:17.232Z,0.00
2018-07-22T02:35:17.216Z,0.00
2018-07-22T02:36:17.305Z,0.00
2018-07-22T02:37:17.185Z,0.00
2018-07-22T02:38:17.173Z,0.00
2018-07-22T02:39:17.162Z,0.00
2018-07-22T02:40:17.146Z,0.00
2018-07-22T02:41:17.129Z,0.00
2018-07-22T02:42:17.117Z,0.00
2018-07-22T02:43:17.107Z,0.00
2018-07-22T02:44:17.093Z,0.00
2018-07-22T02:45:17.079Z,0.00
2018-07-22T02:46:17.067Z,0.00
2018-07-22T02:47:17.056Z,0.00
2018-07-22T02:48:17.034Z,0.00
2018-07-22T02:49:17.021Z,0.00
2018-07-22T02:50:17.006Z,0.00
2018-07-22T02:51:16.997Z,0.00
2018-07-22T02:52:16.987Z,0.00
2018-07-22T02:53:16.965Z,0.00
2018-07-22T02:54:16.953Z,0.00
2018-07-22T02:55:16.943Z,0.00
2018-07-22T02:56:16.927Z,0.00
2018-07-22T02:57:16.914Z,0.00
2018-07-22T02:58:16.898Z,0.00
2018-07-22T02:59:16.886Z,0.00
2018-07-22T03:00:16.927Z,0.00
2018-07-22T03:01:16.856Z,0.00
2018-07-22T03:02:16.849Z,0.00
2018-07-22T03:03:17.006Z,0.00
2018-07-22T03:04:16.820Z,0.00
2018-07-22T03:05:16.802Z,0.00
2018-07-22T03:06:16.785Z,0.00
2018-07-22T03:07:16.776Z,0.00
2018-07-22T03:08:16.763Z,0.00
2018-07-22T03:09:16.746Z,0.00
2018-07-22T03:10:16.744Z,0.00
2018-07-22T03:11:16.724Z,0.00
2018-07-22T03:12:16.704Z,0.00
2018-07-22T03:13:16.690Z,0.00
2018-07-22T03:14:16.683Z,0.00
2018-07-22T03:15:16.668Z,0.00
2018-07-22T03:16:16.652Z,0.00
2018-07-22T03:17:16.634Z,0.00
2018-07-22T03:18:16.627Z,0.00
2018-07-22T03:19:16.678Z,0.00
2018-07-22T03:20:16.595Z,0.00
2018-07-22T03:21:16.579Z,0.00
2018-07-22T03:22:16.578Z,0.00
2018-07-22T03:23:16.554Z,0.00
2018-07-22T03:24:16.539Z,0.00
2018-07-22T03:25:16.522Z,0.00
2018-07-22T03:26:16.508Z,0.00
2018-07-22T03:27:16.495Z,0.00
2018-07-22T03:28:16.483Z,0.00
2018-07-22T03:29:16.466Z,0.00
2018-07-22T03:30:16.453Z,0.00
2018-07-22T03:31:16.444Z,0.00
2018-07-22T03:32:16.425Z,0.00
2018-07-22T03:33:16.411Z,0.00
2018-07-22T03:34:16.397Z,0.00
2018-07-22T03:35:16.547Z,0.00
2018-07-22T03:36:16.373Z,0.00
2018-07-22T03:37:16.361Z,0.00
2018-07-22T03:38:16.349Z,0.00
2018-07-22T03:39:16.329Z,0.00
2018-07-22T03:40:16.316Z,0.00
2018-07-22T03:41:16.302Z,0.00
2018-07-22T03:42:16.287Z,0.00
2018-07-22T03:43:16.276Z,0.00
2018-07-22T03:44:16.259Z,0.00
2018-07-22T03:45:16.244Z,0.00
2018-07-22T03:46:16.231Z,0.00
2018-07-22T03:47:16.219Z,0.00
2018-07-22T03:48:16.206Z,0.00
2018-07-22T03:49:16.192Z,0.00
2018-07-22T03:50:16.179Z,0.00
2018-07-22T03:51:16.160Z,0.00
2018-07-22T03:52:16.149Z,0.00
2018-07-22T03:53:16.136Z,0.00
2018-07-22T03:54:16.121Z,0.00
2018-07-22T03:55:16.112Z,0.00
2018-07-22T03:56:16.095Z,0.00
2018-07-22T03:57:16.076Z,0.00
2018-07-22T03:58:16.064Z,0.00
2018-07-22T03:59:16.052Z,0.00
2018-07-22T04:00:16.036Z,0.00
2018-07-22T04:01:16.026Z,0.00
2018-07-22T04:02:16.110Z,0.00
2018-07-22T04:03:15.993Z,0.00
2018-07-22T04:04:15.979Z,0.00
2018-07-22T04:05:16.049Z,0.00
2018-07-22T04:06:15.954Z,0.00
2018-07-22T04:07:15.937Z,0.00
2018-07-22T04:08:15.923Z,0.00
2018-07-22T04:09:15.911Z,0.00
2018-07-22T04:10:15.898Z,0.00
2018-07-22T04:11:15.884Z,0.00
2018-07-22T04:12:15.866Z,0.00
2018-07-22T04:13:15.860Z,0.00
2018-07-22T04:14:15.846Z,0.00
2018-07-22T04:15:15.865Z,0.00
2018-07-22T04:16:15.814Z,0.00
2018-07-22T04:17:15.803Z,0.00
2018-07-22T04:18:15.836Z,0.00
2018-07-22T04:19:15.773Z,0.00
2018-07-22T04:20:15.758Z,0.00
2018-07-22T04:21:15.747Z,0.00
2018-07-22T04:22:15.734Z,0.00
2018-07-22T04:23:15.720Z,0.00
2018-07-22T04:24:15.701Z,0.00
2018-07-22T04:25:15.700Z,0.00
2018-07-22T04:26:15.674Z,0.00
2018-07-22T04:27:15.659Z,0.00
2018-07-22T04:28:15.649Z,0.00
2018-07-22T04:29:15.629Z,0.00
2018-07-22T04:30:15.615Z,0.00
2018-07-22T04:31:15.609Z,0.00
2018-07-22T04:32:15.586Z,0.00
2018-07-22T04:33:15.625Z,0.00
2018-07-22T04:34:15.612Z,0.00
2018-07-22T04:35:15.544Z,0.00
2018-07-22T04:36:15.535Z,0.00
2018-07-22T04:37:15.679Z,0.00
2018-07-22T04:38:15.516Z,0.00
2018-07-22T04:39:15.489Z,0.00
2018-07-22T04:40:15.479Z,0.00
2018-07-22T04:41:15.461Z,0.00
2018-07-22T04:42:15.557Z,0.00
2018-07-22T04:43:15.433Z,0.00
2018-07-22T04:44:15.417Z,5.63
2018-07-22T04:45:15.459Z,5.63
2018-07-22T04:46:15.392Z,5.63
2018-07-22T04:47:15.383Z,5.63
2018-07-22T04:48:15.362Z,5.63
2018-07-22T04:49:15.353Z,5.63
2018-07-22T04:50:15.336Z,5.63
2018-07-22T04:51:15.320Z,5.63
2018-07-22T04:52:15.308Z,5.63
2018-07-22T04:53:15.299Z,5.63
2018-07-22T04:54:15.277Z,5.63
2018-07-22T04:55:15.266Z,5.63
2018-07-22T04:56:15.250Z,5.63
2018-07-22T04:57:15.249Z,5.63
2018-07-22T04:58:15.368Z,5.63
2018-07-22T04:59:15.209Z,5.63
2018-07-22T05:00:15.193Z,5.63
2018-07-22T05:01:15.281Z,5.63
2018-07-22T05:02:15.169Z,5.63
2018-07-22T05:03:15.153Z,5.63
2018-07-22T05:04:15.134Z,5.63
2018-07-22T05:05:15.130Z,5.63
2018-07-22T05:06:15.106Z,5.63
2018-07-22T05:07:15.093Z,5.63
2018-07-22T05:08:15.078Z,5.63
2018-07-22T05:09:15.071Z,5.63
2018-07-22T05:10:15.050Z,5.63
2018-07-22T05:11:15.036Z,5.63
2018-07-22T05:12:15.025Z,5.63
2018-07-22T05:13:15.012Z,5.63
2018-07-22T05:14:14.994Z,5.63
2018-07-22T05:15:14.979Z,5.63
2018-07-22T05:16:14.977Z,5.63
2018-07-22T05:17:14.952Z,5.63
2018-07-22T05:18:14.943Z,5.63
2018-07-22T05:19:14.925Z,5.63
2018-07-22T05:20:14.912Z,5.63
2018-07-22T05:21:14.895Z,5.63
2018-07-22T05:22:14.885Z,5.63
2018-07-22T05:23:14.875Z,5.63
2018-07-22T05:24:14.853Z,5.63
2018-07-22T05:25:14.839Z,5.63
2018-07-22T05:26:14.827Z,5.63
2018-07-22T05:27:14.812Z,5.63
2018-07-22T05:28:14.799Z,5.63
2018-07-22T05:29:14.785Z,5.63
2018-07-22T05:30:14.768Z,5.63
2018-07-22T05:31:14.754Z,5.63
2018-07-22T05:32:14.742Z,5.63
2018-07-22T05:33:14.725Z,5.63
2018-07-22T05:34:14.713Z,5.63
2018-07-22T05:35:14.695Z,11.25
2018-07-22T05:36:14.686Z,11.25
2018-07-22T05:37:14.670Z,11.25
2018-07-22T05:38:14.657Z,11.25
2018-07-22T05:39:14.647Z,11.25
2018-07-22T05:40:14.634Z,11.25
2018-07-22T05:41:14.616Z,11.25
2018-07-22T05:42:14.596Z,11.25
2018-07-22T05:43:14.588Z,11.25
2018-07-22T05:44:14.670Z,11.25
2018-07-22T05:45:14.557Z,11.25
2018-07-22T05:46:14.546Z,11.25
2018-07-22T05:47:14.526Z,11.25
2018-07-22T05:48:14.523Z,11.25
2018-07-22T05:49:14.499Z,11.25
2018-07-22T05:50:14.494Z,11.25
2018-07-22T05:51:14.473Z,11.25
2018-07-22T05:52:14.466Z,11.25
2018-07-22T05:53:14.447Z,11.25
2018-07-22T05:54:14.428Z,11.25
2018-07-22T05:55:14.434Z,11.25
2018-07-22T05:56:14.408Z,11.25
2018-07-22T05:57:14.387Z,11.25
2018-07-22T05:58:14.371Z,11.25
2018-07-22T05:59:14.365Z,11.25
2018-07-22T06:00:14.493Z,11.25
2018-07-22T06:01:14.327Z,11.25
2018-07-22T06:02:14.317Z,11.25
2018-07-22T06:03:14.352Z,11.25
2018-07-22T06:04:14.285Z,11.25
2018-07-22T06:05:14.269Z,11.25
2018-07-22T06:06:14.256Z,11.25
2018-07-22T06:07:14.244Z,11.25
2018-07-22T06:08:14.227Z,11.25
2018-07-22T06:09:14.213Z,11.25
2018-07-22T06:10:14.199Z,11.25
2018-07-22T06:11:14.188Z,11.25
2018-07-22T06:12:14.171Z,11.25
2018-07-22T06:13:14.163Z,11.25
2018-07-22T06:14:14.141Z,11.25
2018-07-22T06:15:14.129Z,16.88
2018-07-22T06:16:14.110Z,11.25
2018-07-22T06:17:14.101Z,16.88
2018-07-22T06:18:14.085Z,16.88
2018-07-22T06:19:14.069Z,16.88
2018-07-22T06:20:14.067Z,16.88
2018-07-22T06:21:14.045Z,16.88
2018-07-22T06:22:14.026Z,16.88
2018-07-22T06:23:14.011Z,16.88
2018-07-22T06:24:14.006Z,16.88
2018-07-22T06:25:13.986Z,16.88
2018-07-22T06:26:13.975Z,16.88
2018-07-22T06:27:14.012Z,16.88
2018-07-22T06:28:13.953Z,16.88
2018-07-22T06:29:13.929Z,16.88
2018-07-22T06:30:13.915Z,16.88
2018-07-22T06:31:13.907Z,16.88
2018-07-22T06:32:13.892Z,16.88
2018-07-22T06:33:13.875Z,16.88
2018-07-22T06:34:13.860Z,16.88
2018-07-22T06:35:13.858Z,16.88
2018-07-22T06:36:13.842Z,16.88
2018-07-22T06:37:13.817Z,16.88
2018-07-22T06:38:13.805Z,16.88
2018-07-22T06:39:13.791Z,16.88
2018-07-22T06:40:13.777Z,16.88
2018-07-22T06:41:13.863Z,16.88
2018-07-22T06:42:13.748Z,16.88
2018-07-22T06:43:13.764Z,16.88
2018-07-22T06:44:13.715Z,16.88
2018-07-22T06:45:13.702Z,16.88
2018-07-22T06:46:13.726Z,16.88
2018-07-22T06:47:13.674Z,16.88
2018-07-22T06:48:13.660Z,16.88
2018-07-22T06:49:13.646Z,16.88
2018-07-22T06:50:13.632Z,22.50
2018-07-22T06:51:13.621Z,22.50
2018-07-22T06:52:13.608Z,22.50
2018-07-22T06:53:13.595Z,22.50
2018-07-22T06:54:13.584Z,22.50
2018-07-22T06:55:13.566Z,22.50
2018-07-22T06:56:13.547Z,22.50
2018-07-22T06:57:13.621Z,22.50
2018-07-22T06:58:13.521Z,22.50
2018-07-22T06:59:13.524Z,22.50
2018-07-22T07:00:13.491Z,22.50
2018-07-22T07:01:13.477Z,22.50
2018-07-22T07:02:13.573Z,22.50
2018-07-22T07:03:13.452Z,22.50
2018-07-22T07:04:13.437Z,22.50
2018-07-22T07:05:13.459Z,22.50
2018-07-22T07:06:13.412Z,22.50
2018-07-22T07:07:13.400Z,22.50
2018-07-22T07:08:13.381Z,22.50
2018-07-22T07:09:13.371Z,22.50
2018-07-22T07:10:13.507Z,22.50
2018-07-22T07:11:13.342Z,22.50
2018-07-22T07:12:13.329Z,22.50
2018-07-22T07:13:13.367Z,22.50
2018-07-22T07:14:13.302Z,22.50
2018-07-22T07:15:13.294Z,22.50
2018-07-22T07:16:13.277Z,22.50
2018-07-22T07:17:13.270Z,22.50
2018-07-22T07:18:13.246Z,22.50
2018-07-22T07:19:13.237Z,22.50
2018-07-22T07:20:13.219Z,22.50
2018-07-22T07:21:13.214Z,28.13
2018-07-22T07:22:13.191Z,28.13
2018-07-22T07:23:13.175Z,28.13
2018-07-22T07:24:13.166Z,28.13
2018-07-22T07:25:13.152Z,28.13
2018-07-22T07:26:13.211Z,28.13
2018-07-22T07:27:13.133Z,28.13
2018-07-22T07:28:13.112Z,28.13
2018-07-22T07:29:13.097Z,28.13
2018-07-22T07:30:13.081Z,28.13
2018-07-22T07:31:13.069Z,33.75
2018-07-22T07:32:13.054Z,28.13
2018-07-22T07:33:13.042Z,33.75
2018-07-22T07:34:13.053Z,33.75
2018-07-22T07:35:13.016Z,33.75
2018-07-22T07:36:13.015Z,33.75
2018-07-22T07:37:12.997Z,33.75
2018-07-22T07:38:12.973Z,39.38
2018-07-22T07:39:12.963Z,39.38
2018-07-22T07:40:12.945Z,39.38
2018-07-22T07:41:12.936Z,39.38
2018-07-22T07:42:12.990Z,39.38
2018-07-22T07:43:12.906Z,39.38
2018-07-22T07:44:12.895Z,39.38
2018-07-22T07:45:12.978Z,39.38
2018-07-22T07:46:12.866Z,39.38
2018-07-22T07:47:12.852Z,39.38
2018-07-22T07:48:12.891Z,39.38
2018-07-22T07:49:12.826Z,45.00
2018-07-22T07:50:12.822Z,45.00
2018-07-22T07:51:12.805Z,45.00
2018-07-22T07:52:12.798Z,45.00
2018-07-22T07:53:12.774Z,45.00
2018-07-22T07:54:12.761Z,45.00
2018-07-22T07:55:12.750Z,50.63
2018-07-22T07:56:12.734Z,50.63
2018-07-22T07:57:12.724Z,50.63
2018-07-22T07:58:12.712Z,50.63
2018-07-22T07:59:12.696Z,50.63
2018-07-22T08:00:12.687Z,56.25
2018-07-22T08:01:12.669Z,56.25
2018-07-22T08:02:12.660Z,56.25
2018-07-22T08:03:12.646Z,56.25
2018-07-22T08:04:12.631Z,56.25
2018-07-22T08:05:12.624Z,56.25
2018-07-22T08:06:12.718Z,56.25
2018-07-22T08:07:12.597Z,56.25
2018-07-22T08:08:12.581Z,56.25
2018-07-22T08:09:12.585Z,56.25
2018-07-22T08:10:12.555Z,56.25
2018-07-22T08:11:12.543Z,56.25
2018-07-22T08:12:12.552Z,61.88
2018-07-22T08:13:12.526Z,61.88
2018-07-22T08:14:12.506Z,67.50
2018-07-22T08:15:12.504Z,67.50
2018-07-22T08:16:12.481Z,67.50
2018-07-22T08:17:12.465Z,67.50
2018-07-22T08:18:12.463Z,61.88
2018-07-22T08:19:12.533Z,61.88
2018-07-22T08:20:12.433Z,61.88
2018-07-22T08:21:12.419Z,61.88
2018-07-22T08:22:12.446Z,67.50
2018-07-22T08:23:12.390Z,73.13
2018-07-22T08:24:12.377Z,73.13
2018-07-22T08:25:12.421Z,67.50
2018-07-22T08:26:12.422Z,78.75
2018-07-22T08:27:12.346Z,78.75
2018-07-22T08:28:12.328Z,78.75
2018-07-22T08:29:12.316Z,78.75
2018-07-22T08:30:12.306Z,78.75
2018-07-22T08:31:12.288Z,78.75
2018-07-22T08:32:12.286Z,84.38
2018-07-22T08:33:12.266Z,78.75
2018-07-22T08:34:12.256Z,78.75
2018-07-22T08:35:12.242Z,84.38
2018-07-22T08:36:12.234Z,78.75
2018-07-22T08:37:12.217Z,84.38
2018-07-22T08:38:12.212Z,84.38
2018-07-22T08:39:12.197Z,84.38
2018-07-22T08:40:12.196Z,84.38
2018-07-22T08:41:12.241Z,84.38
2018-07-22T08:42:12.158Z,84.38
2018-07-22T08:43:12.145Z,78.75
2018-07-22T08:44:12.135Z,84.38
2018-07-22T08:45:12.137Z,84.38
2018-07-22T08:46:12.109Z,84.38
2018-07-22T08:47:12.094Z,78.75
2018-07-22T08:48:12.088Z,84.38
2018-07-22T08:49:12.081Z,84.38
2018-07-22T08:50:12.061Z,84.38
2018-07-22T08:51:12.051Z,84.38
2018-07-22T08:52:12.090Z,84.38
2018-07-22T08:53:12.060Z,84.38
2018-07-22T08:54:12.014Z,84.38
2018-07-22T08:55:11.998Z,84.38
2018-07-22T08:56:11.990Z,78.75
2018-07-22T08:57:11.997Z,78.75
2018-07-22T08:58:11.975Z,78.75
2018-07-22T08:59:11.952Z,78.75
2018-07-22T09:00:11.950Z,78.75
2018-07-22T09:01:11.930Z,78.75
2018-07-22T09:02:11.921Z,78.75
2018-07-22T09:03:11.906Z,78.75
2018-07-22T09:04:11.895Z,78.75
2018-07-22T09:05:11.882Z,78.75
2018-07-22T09:06:11.886Z,78.75
2018-07-22T09:07:11.855Z,78.75
2018-07-22T09:08:11.863Z,78.75
2018-07-22T09:09:11.833Z,78.75
2018-07-22T09:10:11.834Z,78.75
2018-07-22T09:11:11.809Z,78.75
2018-07-22T09:12:11.797Z,78.75
2018-07-22T09:13:11.790Z,78.75
2018-07-22T09:14:11.781Z,78.75
2018-07-22T09:15:11.763Z,78.75
2018-07-22T09:16:11.755Z,78.75
2018-07-22T09:17:11.741Z,78.75
2018-07-22T09:18:11.728Z,84.38
2018-07-22T09:19:11.716Z,84.38
2018-07-22T09:20:11.718Z,84.38
2018-07-22T09:21:11.712Z,78.75
2018-07-22T09:22:11.683Z,84.38
2018-07-22T09:23:11.675Z,84.38
2018-07-22T09:24:11.659Z,84.38
2018-07-22T09:25:11.647Z,84.38
2018-07-22T09:26:11.643Z,84.38
2018-07-22T09:27:11.629Z,84.38
2018-07-22T09:28:11.616Z,84.38
2018-07-22T09:29:11.602Z,84.38
2018-07-22T09:30:11.589Z,84.38
2018-07-22T09:31:11.591Z,84.38
2018-07-22T09:32:11.572Z,84.38
2018-07-22T09:33:11.565Z,84.38
2018-07-22T09:34:11.553Z,84.38
2018-07-22T09:35:11.541Z,84.38
2018-07-22T09:36:11.647Z,84.38
2018-07-22T09:37:11.564Z,84.38
2018-07-22T09:38:11.503Z,84.38
2018-07-22T09:39:11.491Z,84.38
2018-07-22T09:40:11.479Z,84.38
2018-07-22T09:41:11.468Z,84.38
2018-07-22T09:42:11.462Z,84.38
2018-07-22T09:43:11.453Z,84.38
2018-07-22T09:44:11.442Z,84.38
2018-07-22T09:45:11.472Z,84.38
2018-07-22T09:46:11.414Z,84.38
2018-07-22T09:47:11.425Z,84.38
2018-07-22T09:48:11.439Z,84.38
2018-07-22T09:49:11.375Z,84.38
2018-07-22T09:50:11.363Z,84.38
2018-07-22T09:51:11.351Z,84.38
2018-07-22T09:52:11.345Z,84.38
2018-07-22T09:53:11.327Z,84.38
2018-07-22T09:54:11.317Z,84.38
2018-07-22T09:55:11.309Z,84.38
2018-07-22T09:56:11.302Z,84.38
2018-07-22T09:57:11.288Z,84.38
2018-07-22T09:58:11.275Z,84.38
2018-07-22T09:59:11.316Z,84.38
2018-07-22T10:00:11.256Z,84.38
2018-07-22T10:01:11.345Z,84.38
2018-07-22T10:02:11.230Z,84.38
2018-07-22T10:03:11.221Z,84.38
2018-07-22T10:04:11.259Z,84.38
2018-07-22T10:05:11.198Z,84.38
2018-07-22T10:06:11.196Z,84.38
2018-07-22T10:07:11.178Z,90.00
2018-07-22T10:08:11.174Z,84.38
2018-07-22T10:09:11.151Z,84.38
2018-07-22T10:10:11.139Z,84.38
2018-07-22T10:11:11.146Z,84.38
2018-07-22T10:12:11.127Z,84.38
2018-07-22T10:13:11.107Z,84.38
2018-07-22T10:14:11.225Z,84.38
2018-07-22T10:15:11.087Z,90.00
2018-07-22T10:16:11.074Z,90.00
2018-07-22T10:17:11.068Z,90.00
2018-07-22T10:18:11.052Z,84.38
2018-07-22T10:19:11.041Z,84.38
2018-07-22T10:20:11.081Z,84.38
2018-07-22T10:21:11.026Z,84.38
2018-07-22T10:22:11.013Z,78.75
2018-07-22T10:23:11.001Z,78.75
2018-07-22T10:24:10.989Z,67.50
2018-07-22T10:25:10.977Z,84.38
2018-07-22T10:26:10.966Z,84.38
2018-07-22T10:27:10.954Z,84.38
2018-07-22T10:28:10.955Z,84.38
2018-07-22T10:29:10.942Z,84.38
2018-07-22T10:30:10.927Z,84.38
2018-07-22T10:31:10.917Z,84.38
2018-07-22T10:32:10.901Z,84.38
2018-07-22T10:33:10.892Z,84.38
2018-07-22T10:34:10.885Z,84.38
2018-07-22T10:35:10.872Z,84.38
2018-07-22T10:36:10.872Z,84.38
2018-07-22T10:37:10.850Z,84.38
2018-07-22T10:38:10.837Z,84.38
2018-07-22T10:39:10.827Z,84.38
2018-07-22T10:40:10.817Z,84.38
2018-07-22T10:41:10.865Z,90.00
2018-07-22T10:42:10.798Z,73.13
2018-07-22T10:43:10.801Z,84.38
2018-07-22T10:44:10.771Z,84.38
2018-07-22T10:45:10.767Z,84.38
2018-07-22T10:46:10.753Z,84.38
2018-07-22T10:47:10.743Z,84.38
2018-07-22T10:48:10.745Z,84.38
2018-07-22T10:49:10.728Z,84.38
2018-07-22T10:50:10.718Z,90.00
2018-07-22T10:51:10.707Z,84.38
2018-07-22T10:52:10.694Z,84.38
2018-07-22T10:53:10.684Z,84.38
2018-07-22T10:54:10.674Z,84.38
2018-07-22T10:55:10.660Z,84.38
2018-07-22T10:56:10.649Z,84.38
2018-07-22T10:57:10.749Z,84.38
2018-07-22T10:58:10.625Z,84.38
2018-07-22T10:59:10.617Z,84.38
2018-07-22T11:00:10.653Z,84.38
2018-07-22T11:01:10.597Z,84.38
2018-07-22T11:02:10.587Z,84.38
2018-07-22T11:03:10.596Z,84.38
2018-07-22T11:04:10.576Z,90.00
2018-07-22T11:05:10.564Z,90.00
2018-07-22T11:06:10.546Z,73.13
2018-07-22T11:07:10.536Z,90.00
2018-07-22T11:08:10.531Z,90.00
2018-07-22T11:09:10.521Z,90.00
2018-07-22T11:10:10.520Z,90.00
2018-07-22T11:11:10.498Z,95.63
2018-07-22T11:12:10.482Z,90.00
2018-07-22T11:13:10.486Z,90.00
2018-07-22T11:14:10.481Z,101.25
2018-07-22T11:15:10.452Z,101.25
2018-07-22T11:16:10.441Z,106.88
2018-07-22T11:17:10.431Z,101.25
2018-07-22T11:18:10.418Z,101.25
2018-07-22T11:19:10.411Z,61.88
2018-07-22T11:20:10.410Z,39.38
2018-07-22T11:21:10.420Z,39.38
2018-07-22T11:22:10.380Z,50.63
2018-07-22T11:23:10.367Z,45.00
2018-07-22T11:24:10.370Z,33.75
2018-07-22T11:25:10.348Z,39.38
2018-07-22T11:26:10.342Z,39.38
2018-07-22T11:27:10.337Z,39.38
2018-07-22T11:28:10.319Z,39.38
2018-07-22T11:29:10.363Z,84.38
2018-07-22T11:30:10.301Z,101.25
2018-07-22T11:31:10.293Z,101.25
2018-07-22T11:32:10.279Z,101.25
2018-07-22T11:33:10.269Z,84.38
2018-07-22T11:34:10.359Z,56.25
2018-07-22T11:35:10.246Z,101.25
2018-07-22T11:36:10.236Z,112.50
2018-07-22T11:37:10.237Z,61.88
2018-07-22T11:38:10.213Z,50.63
2018-07-22T11:39:10.209Z,45.00
2018-07-22T11:40:10.198Z,45.00
2018-07-22T11:41:10.184Z,45.00
2018-07-22T11:42:10.185Z,45.00
2018-07-22T11:43:10.168Z,45.00
2018-07-22T11:44:10.157Z,78.75
2018-07-22T11:45:10.154Z,56.25
2018-07-22T11:46:10.130Z,61.88
2018-07-22T11:47:10.136Z,50.63
2018-07-22T11:48:10.112Z,45.00
2018-07-22T11:49:10.101Z,45.00
2018-07-22T11:50:10.153Z,33.75
2018-07-22T11:51:10.092Z,33.75
2018-07-22T11:52:10.072Z,33.75
2018-07-22T11:53:10.063Z,33.75
2018-07-22T11:54:10.053Z,33.75
2018-07-22T11:55:10.053Z,33.75
2018-07-22T11:56:10.031Z,33.75
2018-07-22T11:57:10.029Z,28.13
2018-07-22T11:58:10.004Z,33.75
2018-07-22T11:59:09.995Z,28.13
2018-07-22T12:00:10.056Z,28.13
2018-07-22T12:01:09.980Z,28.13
2018-07-22T12:02:09.974Z,28.13
2018-07-22T12:03:09.961Z,28.13
2018-07-22T12:04:09.957Z,33.75
2018-07-22T12:05:09.939Z,33.75
2018-07-22T12:06:10.026Z,39.38
2018-07-22T12:07:09.936Z,61.88
2018-07-22T12:08:09.912Z,50.63
2018-07-22T12:09:09.891Z,45.00
2018-07-22T12:10:09.895Z,50.63
2018-07-22T12:11:09.875Z,45.00
2018-07-22T12:12:09.901Z,39.38
2018-07-22T12:13:09.852Z,39.38
2018-07-22T12:14:09.844Z,39.38
2018-07-22T12:15:09.903Z,45.00
2018-07-22T12:16:09.814Z,45.00
2018-07-22T12:17:09.812Z,50.63
2018-07-22T12:18:09.805Z,73.13
2018-07-22T12:19:09.798Z,73.13
2018-07-22T12:20:09.775Z,73.13
2018-07-22T12:21:09.766Z,90.00
2018-07-22T12:22:09.754Z,90.00
2018-07-22T12:23:09.743Z,95.63
2018-07-22T12:24:09.739Z,101.25
2018-07-22T12:25:09.728Z,95.63
2018-07-22T12:26:09.728Z,50.63
2018-07-22T12:27:09.821Z,50.63
2018-07-22T12:28:09.754Z,45.00
2018-07-22T12:29:09.692Z,45.00
2018-07-22T12:30:09.674Z,50.63
2018-07-22T12:31:09.662Z,50.63
2018-07-22T12:32:09.657Z,78.75
2018-07-22T12:33:09.654Z,73.13
2018-07-22T12:34:09.684Z,61.88
2018-07-22T12:35:09.618Z,45.00
2018-07-22T12:36:09.607Z,50.63
2018-07-22T12:37:09.598Z,45.00
2018-07-22T12:38:09.610Z,39.38
2018-07-22T12:39:09.574Z,33.75
2018-07-22T12:40:09.565Z,33.75
2018-07-22T12:41:09.557Z,33.75
2018-07-22T12:42:09.546Z,33.75
2018-07-22T12:43:09.536Z,33.75
2018-07-22T12:44:09.537Z,33.75
2018-07-22T12:45:09.511Z,45.00
2018-07-22T12:46:09.519Z,39.38
2018-07-22T12:47:09.495Z,33.75
2018-07-22T12:48:09.481Z,33.75
2018-07-22T12:49:09.473Z,33.75
2018-07-22T12:50:09.466Z,33.75
2018-07-22T12:51:09.466Z,33.75
2018-07-22T12:52:09.444Z,33.75
2018-07-22T12:53:09.432Z,39.38
2018-07-22T12:54:09.423Z,45.00
2018-07-22T12:55:09.419Z,90.00
2018-07-22T12:56:09.398Z,90.00
2018-07-22T12:57:09.383Z,33.75
2018-07-22T12:58:09.385Z,33.75
2018-07-22T12:59:09.387Z,33.75
2018-07-22T13:00:09.357Z,33.75
2018-07-22T13:01:09.346Z,33.75
2018-07-22T13:02:09.501Z,33.75
2018-07-22T13:03:09.323Z,33.75